Time;durP1;ratioP1;P1;durP2;ratioP2;P2;SDS_P1;SDS_P2;PMS_P1;PMS_P2;Temp;Humidity;BMP_temperature;BMP_pressure;BME280_temperature;BME280_humidity;BME280_pressure;Samples;Min_cycle;Max_cycle;Signal;HPM_P1;HPM_P2
2022/07/09 00:00:07;;;;;;;;;6.67;5.67;;;;;;;;5058074;28;51039;-71
2022/07/09 00:02:34;;;;;;;;;7.00;7.00;;;;;;;;5036235;28;51062;-72
2022/07/09 00:04:59;;;;;;;;;8.00;7.67;;;;;;;;5056503;28;50995;-73
2022/07/09 00:07:26;;;;;;;;;9.00;8.00;;;;;;;;5056541;28;51063;-72
2022/07/09 00:09:51;;;;;;;;;7.00;7.00;;;;;;;;5054073;28;51133;-72
2022/07/09 00:12:17;;;;;;;;;10.33;9.00;;;;;;;;5054312;28;51060;-71
2022/07/09 00:14:42;;;;;;;;;8.67;7.67;;;;;;;;5053594;28;51064;-72
2022/07/09 00:17:07;;;;;;;;;8.00;7.00;;;;;;;;5057156;28;52868;-73
2022/07/09 00:19:32;;;;;;;;;8.00;8.00;;;;;;;;5055221;28;50945;-72
2022/07/09 00:21:57;;;;;;;;;7.00;7.00;;;;;;;;5036140;28;51372;-71
2022/07/09 00:24:23;;;;;;;;;8.00;8.00;;;;;;;;5054830;28;51299;-70
2022/07/09 00:26:48;;;;;;;;;8.00;7.67;;;;;;;;5054172;28;51646;-71
2022/07/09 00:29:13;;;;;;;;;8.67;8.00;;;;;;;;5053403;28;51272;-71
2022/07/09 00:31:38;;;;;;;;;8.33;8.33;;;;;;;;5054008;28;51189;-71
2022/07/09 00:34:04;;;;;;;;;10.25;10.25;;;;;;;;5058499;28;51163;-70
2022/07/09 00:36:29;;;;;;;;;8.00;7.33;;;;;;;;5053884;28;51116;-71
2022/07/09 00:38:54;;;;;;;;;9.00;8.67;;;;;;;;5066938;28;51450;-72
2022/07/09 00:41:19;;;;;;;;;9.00;8.33;;;;;;;;5053575;28;51181;-71
2022/07/09 00:43:48;;;;;;;;;9.00;8.33;;;;;;;;5058980;28;51180;-71
2022/07/09 00:46:13;;;;;;;;;9.00;8.00;;;;;;;;5056459;28;51901;-71
2022/07/09 00:48:39;;;;;;;;;7.00;6.00;;;;;;;;5068691;28;51293;-70
2022/07/09 00:51:04;;;;;;;;;7.33;7.33;;;;;;;;5035427;28;51191;-70
2022/07/09 00:53:30;;;;;;;;;8.00;8.00;;;;;;;;5053316;28;51102;-69
2022/07/09 00:55:55;;;;;;;;;8.67;7.67;;;;;;;;5038655;28;52163;-70
2022/07/09 00:58:20;;;;;;;;;7.33;7.33;;;;;;;;5054732;28;51014;-70
2022/07/09 01:00:46;;;;;;;;;9.00;8.00;;;;;;;;5056870;28;51823;-70
2022/07/09 01:03:11;;;;;;;;;7.67;7.67;;;;;;;;5069266;28;50985;-71
2022/07/09 01:05:36;;;;;;;;;7.00;7.00;;;;;;;;5065215;28;51129;-69
2022/07/09 01:08:03;;;;;;;;;8.33;8.33;;;;;;;;5055944;28;50973;-70
2022/07/09 01:10:28;;;;;;;;;8.00;8.00;;;;;;;;5052785;28;51107;-70
2022/07/09 01:12:55;;;;;;;;;10.67;9.67;;;;;;;;5067179;28;51078;-70
2022/07/09 01:15:20;;;;;;;;;9.33;9.00;;;;;;;;5057884;28;52738;-71
2022/07/09 01:17:45;;;;;;;;;5.00;5.00;;;;;;;;5058836;28;51021;-70
2022/07/09 01:20:10;;;;;;;;;7.67;7.33;;;;;;;;5060414;28;51128;-70
2022/07/09 01:22:36;;;;;;;;;8.00;8.00;;;;;;;;5068842;28;50879;-71
2022/07/09 01:25:04;;;;;;;;;9.00;8.67;;;;;;;;5040089;28;51125;-69
2022/07/09 01:27:30;;;;;;;;;8.00;8.00;;;;;;;;5055505;28;52458;-69
2022/07/09 01:29:55;;;;;;;;;9.00;9.00;;;;;;;;5057242;28;51105;-71
2022/07/09 01:32:20;;;;;;;;;9.33;9.00;;;;;;;;5062424;28;51244;-71
2022/07/09 01:34:45;;;;;;;;;8.33;7.67;;;;;;;;5062607;28;51059;-70
2022/07/09 01:37:10;;;;;;;;;9.33;8.33;;;;;;;;5061473;28;51186;-71
2022/07/09 01:39:49;;;;;;;;;6.00;6.00;;;;;;;;5062467;28;51273;-70
2022/07/09 01:42:14;;;;;;;;;8.00;8.00;;;;;;;;5051780;28;51055;-71
2022/07/09 01:44:40;;;;;;;;;8.00;8.00;;;;;;;;5050997;28;51131;-70
2022/07/09 01:47:05;;;;;;;;;7.33;7.33;;;;;;;;5054196;28;51112;-70
2022/07/09 01:49:30;;;;;;;;;9.33;9.00;;;;;;;;5066648;28;51079;-70
2022/07/09 01:51:55;;;;;;;;;8.00;8.00;;;;;;;;5058997;28;51084;-71
2022/07/09 01:54:20;;;;;;;;;8.67;8.67;;;;;;;;5069353;28;51940;-70
2022/07/09 01:56:46;;;;;;;;;11.00;11.00;;;;;;;;5068445;28;51090;-70
2022/07/09 01:59:11;;;;;;;;;8.33;8.33;;;;;;;;5062138;28;51203;-71
2022/07/09 02:01:36;;;;;;;;;8.00;7.67;;;;;;;;5064268;28;51201;-71
2022/07/09 02:04:01;;;;;;;;;9.00;8.00;;;;;;;;5053331;28;51773;-70
2022/07/09 02:06:27;;;;;;;;;9.00;9.00;;;;;;;;5060113;28;51138;-72
2022/07/09 02:08:52;;;;;;;;;9.00;9.00;;;;;;;;5053018;28;51184;-72
2022/07/09 02:11:18;;;;;;;;;7.00;7.00;;;;;;;;5048179;28;51034;-71
2022/07/09 02:13:43;;;;;;;;;9.00;8.67;;;;;;;;5054450;28;51520;-71
2022/07/09 02:16:08;;;;;;;;;9.00;9.00;;;;;;;;5056325;28;51175;-71
2022/07/09 02:18:33;;;;;;;;;9.00;9.00;;;;;;;;5054948;28;50923;-69
2022/07/09 02:20:58;;;;;;;;;12.33;11.67;;;;;;;;5054006;28;51051;-70
2022/07/09 02:23:24;;;;;;;;;11.00;10.00;;;;;;;;5055062;28;51717;-71
2022/07/09 02:25:49;;;;;;;;;10.67;10.67;;;;;;;;5056613;28;50999;-71
2022/07/09 02:28:14;;;;;;;;;9.00;9.00;;;;;;;;5055872;28;51015;-70
2022/07/09 02:30:39;;;;;;;;;7.67;7.33;;;;;;;;5061564;28;51368;-70
2022/07/09 02:33:04;;;;;;;;;8.67;8.67;;;;;;;;5053998;28;51121;-70
2022/07/09 02:35:30;;;;;;;;;9.00;9.00;;;;;;;;5055425;28;51049;-71
2022/07/09 02:37:55;;;;;;;;;10.00;10.00;;;;;;;;5066433;28;51084;-70
2022/07/09 02:40:20;;;;;;;;;9.00;9.00;;;;;;;;5061451;28;50963;-72
2022/07/09 02:42:45;;;;;;;;;8.33;7.67;;;;;;;;5060680;28;51848;-70
2022/07/09 02:45:10;;;;;;;;;8.33;7.67;;;;;;;;5058400;28;50951;-70
2022/07/09 02:47:36;;;;;;;;;10.25;10.25;;;;;;;;5054769;28;51181;-70
2022/07/09 02:50:01;;;;;;;;;10.33;9.00;;;;;;;;5051682;28;50999;-72
2022/07/09 02:52:26;;;;;;;;;9.67;9.00;;;;;;;;5056049;28;53116;-71
2022/07/09 02:54:51;;;;;;;;;9.33;9.33;;;;;;;;5064891;28;50985;-70
2022/07/09 02:57:17;;;;;;;;;10.00;9.50;;;;;;;;5057316;28;51233;-69
2022/07/09 02:59:42;;;;;;;;;9.00;8.67;;;;;;;;5058373;28;51174;-71
2022/07/09 03:02:07;;;;;;;;;11.67;10.67;;;;;;;;5056877;28;52315;-70
2022/07/09 03:04:32;;;;;;;;;11.00;9.67;;;;;;;;5034656;28;51238;-70
2022/07/09 03:06:57;;;;;;;;;9.67;9.67;;;;;;;;5058585;28;50989;-69
2022/07/09 03:09:23;;;;;;;;;9.00;8.67;;;;;;;;5057053;28;51104;-70
2022/07/09 03:11:48;;;;;;;;;7.50;7.50;;;;;;;;5054777;28;51222;-69
2022/07/09 03:14:13;;;;;;;;;11.67;10.33;;;;;;;;5062426;28;51098;-69
2022/07/09 03:16:38;;;;;;;;;9.33;9.33;;;;;;;;5051721;28;51144;-71
2022/07/09 03:19:04;;;;;;;;;10.33;10.33;;;;;;;;5062612;28;51058;-70
2022/07/09 03:21:29;;;;;;;;;9.67;8.67;;;;;;;;5052829;28;51870;-70
2022/07/09 03:23:54;;;;;;;;;9.00;9.00;;;;;;;;5053078;27;52036;-71
2022/07/09 03:26:19;;;;;;;;;8.00;8.00;;;;;;;;5052045;28;51348;-71
2022/07/09 03:28:44;;;;;;;;;11.00;11.00;;;;;;;;5051747;28;51121;-71
2022/07/09 03:31:10;;;;;;;;;10.33;10.33;;;;;;;;5058031;28;51187;-70
2022/07/09 03:33:36;;;;;;;;;10.00;10.00;;;;;;;;5059348;28;50919;-70
2022/07/09 03:36:01;;;;;;;;;9.67;9.67;;;;;;;;5033734;28;51268;-71
2022/07/09 03:38:27;;;;;;;;;10.00;9.00;;;;;;;;5051585;28;51118;-70
2022/07/09 03:40:52;;;;;;;;;7.67;7.67;;;;;;;;5062268;28;50958;-69
2022/07/09 03:43:17;;;;;;;;;9.00;8.33;;;;;;;;5052625;28;50901;-69
2022/07/09 03:45:43;;;;;;;;;10.00;9.00;;;;;;;;5050483;28;51027;-71
2022/07/09 03:48:09;;;;;;;;;12.50;12.00;;;;;;;;5054336;28;51034;-70
2022/07/09 03:50:34;;;;;;;;;9.00;9.00;;;;;;;;5049732;28;52440;-71
2022/07/09 03:52:59;;;;;;;;;11.33;10.67;;;;;;;;5060837;28;51138;-71
2022/07/09 03:55:24;;;;;;;;;11.00;11.00;;;;;;;;5055783;28;51113;-69
2022/07/09 03:57:49;;;;;;;;;9.00;8.67;;;;;;;;5055202;28;51084;-70
2022/07/09 04:00:15;;;;;;;;;11.00;11.00;;;;;;;;5051264;28;51743;-71
2022/07/09 04:02:40;;;;;;;;;9.33;9.33;;;;;;;;5050578;28;51045;-71
2022/07/09 04:05:05;;;;;;;;;10.33;10.00;;;;;;;;5064305;28;51453;-70
2022/07/09 04:07:31;;;;;;;;;9.00;8.00;;;;;;;;5060665;28;50960;-71
2022/07/09 04:09:56;;;;;;;;;10.75;10.00;;;;;;;;5053565;27;51973;-71
2022/07/09 04:12:22;;;;;;;;;11.33;11.00;;;;;;;;5055988;28;51050;-71
2022/07/09 04:14:47;;;;;;;;;11.00;11.00;;;;;;;;5064459;28;51270;-70
2022/07/09 04:17:12;;;;;;;;;10.75;10.75;;;;;;;;5056074;28;50995;-72
2022/07/09 04:19:38;;;;;;;;;11.25;10.50;;;;;;;;5056720;28;51688;-69
2022/07/09 04:22:03;;;;;;;;;11.00;10.33;;;;;;;;5060114;28;51109;-70
2022/07/09 04:24:29;;;;;;;;;10.00;10.00;;;;;;;;5055104;28;51712;-70
2022/07/09 04:26:54;;;;;;;;;11.33;11.00;;;;;;;;5056582;28;51300;-69
2022/07/09 04:29:19;;;;;;;;;12.00;12.00;;;;;;;;5053479;28;51993;-71
2022/07/09 04:31:44;;;;;;;;;10.67;10.67;;;;;;;;5053668;28;51987;-69
2022/07/09 04:34:09;;;;;;;;;10.67;10.67;;;;;;;;5054639;28;51343;-70
2022/07/09 04:36:35;;;;;;;;;13.00;12.33;;;;;;;;5054130;28;51013;-70
2022/07/09 04:39:00;;;;;;;;;14.33;12.33;;;;;;;;5053847;28;51137;-68
2022/07/09 04:41:25;;;;;;;;;8.50;8.50;;;;;;;;5053452;28;51146;-71
2022/07/09 04:43:50;;;;;;;;;7.00;7.00;;;;;;;;5070455;28;50934;-71
2022/07/09 04:46:16;;;;;;;;;9.33;9.33;;;;;;;;5063354;28;51038;-69
2022/07/09 04:48:41;;;;;;;;;12.67;11.33;;;;;;;;5053590;28;51870;-70
2022/07/09 04:51:07;;;;;;;;;13.67;13.67;;;;;;;;5054124;28;51196;-69
2022/07/09 04:53:32;;;;;;;;;10.00;10.00;;;;;;;;5054624;28;51092;-69
2022/07/09 04:55:57;;;;;;;;;12.33;11.67;;;;;;;;5058331;28;51077;-70
2022/07/09 04:58:22;;;;;;;;;12.00;12.00;;;;;;;;5034642;28;53250;-69
2022/07/09 05:00:48;;;;;;;;;12.00;12.00;;;;;;;;5062674;28;51034;-71
2022/07/09 05:03:13;;;;;;;;;10.33;10.00;;;;;;;;5053698;28;51173;-70
2022/07/09 05:05:38;;;;;;;;;11.67;11.67;;;;;;;;5036252;28;51333;-70
2022/07/09 05:08:03;;;;;;;;;11.00;10.00;;;;;;;;5054088;28;52053;-71
2022/07/09 05:10:29;;;;;;;;;12.75;12.75;;;;;;;;5065545;28;50832;-70
2022/07/09 05:12:54;;;;;;;;;14.25;13.00;;;;;;;;5058722;28;51116;-70
2022/07/09 05:15:19;;;;;;;;;11.00;11.00;;;;;;;;5035744;28;51401;-70
2022/07/09 05:17:44;;;;;;;;;13.00;12.00;;;;;;;;5058331;28;51765;-70
2022/07/09 05:20:10;;;;;;;;;9.00;9.00;;;;;;;;5068908;28;51203;-70
2022/07/09 05:22:36;;;;;;;;;9.33;9.33;;;;;;;;5074321;28;51104;-70
2022/07/09 05:25:03;;;;;;;;;15.00;14.00;;;;;;;;5048274;28;51021;-69
2022/07/09 05:27:28;;;;;;;;;11.33;10.33;;;;;;;;5038143;28;51916;-70
2022/07/09 05:29:53;;;;;;;;;12.33;11.67;;;;;;;;5053102;28;51049;-69
2022/07/09 05:32:19;;;;;;;;;13.00;12.00;;;;;;;;5063085;28;50997;-70
2022/07/09 05:34:44;;;;;;;;;12.67;12.67;;;;;;;;5069629;28;50979;-70
2022/07/09 05:37:09;;;;;;;;;14.67;13.67;;;;;;;;5054754;28;51194;-72
2022/07/09 05:39:34;;;;;;;;;12.00;12.00;;;;;;;;5053585;28;51109;-69
2022/07/09 05:42:00;;;;;;;;;11.67;11.67;;;;;;;;5035665;28;51129;-71
2022/07/09 05:44:25;;;;;;;;;11.67;11.33;;;;;;;;5053439;28;50965;-70
2022/07/09 05:46:50;;;;;;;;;11.67;11.67;;;;;;;;5053448;28;52019;-71
2022/07/09 05:49:15;;;;;;;;;12.00;11.33;;;;;;;;5052435;28;51308;-70
2022/07/09 05:51:41;;;;;;;;;13.00;13.00;;;;;;;;5054245;28;50967;-69
2022/07/09 05:54:06;;;;;;;;;12.67;12.00;;;;;;;;5065644;28;51411;-69
2022/07/09 05:56:31;;;;;;;;;12.00;12.00;;;;;;;;5065075;28;50946;-71
2022/07/09 05:58:57;;;;;;;;;12.67;12.00;;;;;;;;5048907;28;51104;-70
2022/07/09 06:01:22;;;;;;;;;12.33;12.00;;;;;;;;5055558;28;51249;-69
2022/07/09 06:03:47;;;;;;;;;10.67;10.67;;;;;;;;5072740;28;51090;-71
2022/07/09 06:06:12;;;;;;;;;12.67;12.33;;;;;;;;5071339;28;51790;-70
2022/07/09 06:08:37;;;;;;;;;8.67;8.67;;;;;;;;5050997;28;51176;-70
2022/07/09 06:11:03;;;;;;;;;10.00;10.00;;;;;;;;5053626;28;50991;-68
2022/07/09 06:13:28;;;;;;;;;11.00;10.00;;;;;;;;5073532;28;51066;-70
2022/07/09 06:15:54;;;;;;;;;10.00;9.67;;;;;;;;5061053;28;51085;-71
2022/07/09 06:18:19;;;;;;;;;10.33;10.33;;;;;;;;5057718;28;51174;-68
2022/07/09 06:20:45;;;;;;;;;9.00;9.00;;;;;;;;5057019;28;51077;-68
2022/07/09 06:23:10;;;;;;;;;11.33;10.33;;;;;;;;5057052;28;51386;-70
2022/07/09 06:25:37;;;;;;;;;11.33;11.33;;;;;;;;5058188;28;51601;-68
2022/07/09 06:28:02;;;;;;;;;9.67;9.67;;;;;;;;5059574;28;51073;-69
2022/07/09 06:30:28;;;;;;;;;9.67;9.00;;;;;;;;5065272;28;51117;-69
2022/07/09 06:32:53;;;;;;;;;11.67;11.67;;;;;;;;5057893;28;52044;-68
2022/07/09 06:35:18;;;;;;;;;7.00;6.00;;;;;;;;5059809;28;51594;-74
2022/07/09 06:37:43;;;;;;;;;9.00;9.00;;;;;;;;5057026;28;51073;-70
2022/07/09 06:40:09;;;;;;;;;12.33;11.67;;;;;;;;5066494;28;51077;-68
2022/07/09 06:42:34;;;;;;;;;9.50;9.50;;;;;;;;5073340;28;51005;-69
2022/07/09 06:44:59;;;;;;;;;10.33;10.33;;;;;;;;5063965;28;51100;-71
2022/07/09 06:47:24;;;;;;;;;14.33;13.33;;;;;;;;5058333;28;51125;-71
2022/07/09 06:49:50;;;;;;;;;11.00;11.00;;;;;;;;5052095;28;50923;-71
2022/07/09 06:52:15;;;;;;;;;11.67;11.67;;;;;;;;5035019;28;51363;-70
2022/07/09 06:54:40;;;;;;;;;8.00;8.00;;;;;;;;5052896;28;51659;-71
2022/07/09 06:57:06;;;;;;;;;10.00;10.00;;;;;;;;5057165;28;51269;-70
2022/07/09 06:59:32;;;;;;;;;8.33;8.00;;;;;;;;5055528;28;50985;-69
2022/07/09 07:01:57;;;;;;;;;7.00;7.00;;;;;;;;5063752;28;50924;-70
2022/07/09 07:04:22;;;;;;;;;7.67;7.33;;;;;;;;5051669;28;51080;-69
2022/07/09 07:06:49;;;;;;;;;8.67;8.67;;;;;;;;5052629;28;50892;-71
2022/07/09 07:09:18;;;;;;;;;9.33;9.33;;;;;;;;5058657;28;51031;-70
2022/07/09 07:11:43;;;;;;;;;10.00;9.00;;;;;;;;5072698;28;50960;-69
2022/07/09 07:14:08;;;;;;;;;9.00;9.00;;;;;;;;5071699;28;51108;-68
2022/07/09 07:16:33;;;;;;;;;10.67;10.00;;;;;;;;5064396;28;51194;-67
2022/07/09 07:18:58;;;;;;;;;9.00;8.33;;;;;;;;5036298;28;51090;-70
2022/07/09 07:21:24;;;;;;;;;10.00;9.00;;;;;;;;5052286;28;51241;-70
2022/07/09 07:23:49;;;;;;;;;9.33;9.00;;;;;;;;5057450;28;51985;-70
2022/07/09 07:26:14;;;;;;;;;11.00;11.00;;;;;;;;5071117;28;51139;-69
2022/07/09 07:28:39;;;;;;;;;11.00;11.00;;;;;;;;5067308;28;51280;-69
2022/07/09 07:31:04;;;;;;;;;9.67;9.67;;;;;;;;5051806;28;51103;-69
2022/07/09 07:33:30;;;;;;;;;13.00;12.67;;;;;;;;5051686;28;52113;-69
2022/07/09 07:35:55;;;;;;;;;10.67;10.67;;;;;;;;5050553;28;50999;-70
2022/07/09 07:38:20;;;;;;;;;6.33;6.00;;;;;;;;5051908;28;50971;-69
2022/07/09 07:40:45;;;;;;;;;9.50;9.50;;;;;;;;5051598;28;50967;-70
2022/07/09 07:43:13;;;;;;;;;9.00;9.00;;;;;;;;5051961;28;51092;-69
2022/07/09 07:45:39;;;;;;;;;7.33;7.00;;;;;;;;5057914;28;51028;-69
2022/07/09 07:48:04;;;;;;;;;10.00;9.00;;;;;;;;5051194;28;50998;-72
2022/07/09 07:50:29;;;;;;;;;9.67;9.67;;;;;;;;5051397;28;51301;-70
2022/07/09 07:52:55;;;;;;;;;7.33;7.33;;;;;;;;5050616;28;50902;-72
2022/07/09 07:55:20;;;;;;;;;6.67;6.67;;;;;;;;5050946;28;51038;-71
2022/07/09 07:57:45;;;;;;;;;7.67;7.67;;;;;;;;5047703;28;51503;-72
2022/07/09 08:00:11;;;;;;;;;11.00;10.33;;;;;;;;5060739;28;51476;-73
2022/07/09 08:02:36;;;;;;;;;7.00;7.00;;;;;;;;5056813;28;51876;-72
2022/07/09 08:05:01;;;;;;;;;7.67;7.67;;;;;;;;5063894;28;51198;-69
2022/07/09 08:07:26;;;;;;;;;8.00;8.00;;;;;;;;5056588;28;52340;-71
2022/07/09 08:09:52;;;;;;;;;8.67;8.00;;;;;;;;5057975;28;51117;-70
2022/07/09 08:12:17;;;;;;;;;6.00;6.00;;;;;;;;5057026;28;51294;-70
2022/07/09 08:14:42;;;;;;;;;5.67;5.67;;;;;;;;5062760;28;51117;-72
2022/07/09 08:17:07;;;;;;;;;6.00;6.00;;;;;;;;5049700;28;51112;-69
2022/07/09 08:19:33;;;;;;;;;7.00;6.00;;;;;;;;5064945;28;51093;-71
2022/07/09 08:21:58;;;;;;;;;6.67;6.33;;;;;;;;5059302;28;53033;-69
2022/07/09 08:24:23;;;;;;;;;5.67;5.67;;;;;;;;5036742;28;51006;-69
2022/07/09 08:26:48;;;;;;;;;6.67;6.67;;;;;;;;5054464;28;51019;-69
2022/07/09 08:29:13;;;;;;;;;4.67;4.67;;;;;;;;5069557;28;51065;-70
2022/07/09 08:31:39;;;;;;;;;5.67;5.67;;;;;;;;5061889;28;51833;-72
2022/07/09 08:34:04;;;;;;;;;5.67;5.33;;;;;;;;5054949;28;51042;-71
2022/07/09 08:36:29;;;;;;;;;4.00;4.00;;;;;;;;5035237;28;51356;-71
2022/07/09 08:38:54;;;;;;;;;4.67;4.67;;;;;;;;5053676;28;51021;-71
2022/07/09 08:41:22;;;;;;;;;3.67;3.67;;;;;;;;5060077;28;51798;-74
2022/07/09 08:43:51;;;;;;;;;4.00;4.00;;;;;;;;5057954;28;51281;-72
2022/07/09 08:46:16;;;;;;;;;5.00;5.00;;;;;;;;5054481;28;51237;-70
2022/07/09 08:48:42;;;;;;;;;5.00;4.33;;;;;;;;5067103;28;51131;-71
2022/07/09 08:51:08;;;;;;;;;6.00;6.00;;;;;;;;5048751;28;51787;-70
2022/07/09 08:53:34;;;;;;;;;4.33;4.00;;;;;;;;5057413;28;51182;-71
2022/07/09 08:55:59;;;;;;;;;4.67;4.67;;;;;;;;5056084;28;50986;-69
2022/07/09 08:58:24;;;;;;;;;5.00;5.00;;;;;;;;5036130;27;51338;-69
2022/07/09 09:00:50;;;;;;;;;4.00;4.00;;;;;;;;5060156;28;51937;-68
2022/07/09 09:03:16;;;;;;;;;8.00;8.00;;;;;;;;5062717;28;51221;-69
2022/07/09 09:05:42;;;;;;;;;5.33;5.00;;;;;;;;5060092;28;51073;-67
2022/07/09 09:08:22;;;;;;;;;4.33;4.33;;;;;;;;5066645;28;50944;-68
2022/07/09 09:10:47;;;;;;;;;6.67;6.00;;;;;;;;5072125;28;51763;-69
2022/07/09 09:13:14;;;;;;;;;6.00;5.00;;;;;;;;5070478;28;51208;-69
2022/07/09 09:15:39;;;;;;;;;4.00;4.00;;;;;;;;5062041;28;50997;-69
2022/07/09 09:18:04;;;;;;;;;4.00;4.00;;;;;;;;5053432;28;51125;-69
2022/07/09 09:20:31;;;;;;;;;3.00;3.00;;;;;;;;5054646;28;52057;-68
2022/07/09 09:23:01;;;;;;;;;4.00;4.00;;;;;;;;5042481;28;50933;-69
2022/07/09 09:25:27;;;;;;;;;5.00;5.00;;;;;;;;5064348;28;51099;-68
2022/07/09 09:27:53;;;;;;;;;5.00;5.00;;;;;;;;5043065;28;51198;-68
2022/07/09 09:30:18;;;;;;;;;3.00;3.00;;;;;;;;5052120;28;51970;-69
2022/07/09 09:32:43;;;;;;;;;4.00;4.00;;;;;;;;5053737;28;51141;-67
2022/07/09 09:35:09;;;;;;;;;5.00;4.33;;;;;;;;5052066;28;52453;-67
2022/07/09 09:37:34;;;;;;;;;5.00;5.00;;;;;;;;5053643;28;51168;-67
2022/07/09 09:40:07;;;;;;;;;4.67;4.00;;;;;;;;5054702;28;51263;-66
2022/07/09 09:42:35;;;;;;;;;4.00;4.00;;;;;;;;5072737;28;51056;-67
2022/07/09 09:45:01;;;;;;;;;4.00;4.00;;;;;;;;5069688;28;51134;-68
2022/07/09 09:47:27;;;;;;;;;3.00;3.00;;;;;;;;5056421;28;50844;-68
2022/07/09 09:49:54;;;;;;;;;5.00;5.00;;;;;;;;5058196;28;52054;-67
2022/07/09 09:52:19;;;;;;;;;4.67;3.67;;;;;;;;5062727;28;50959;-66
2022/07/09 09:54:47;;;;;;;;;5.00;4.33;;;;;;;;5042076;28;51265;-66
2022/07/09 09:57:16;;;;;;;;;5.67;5.00;;;;;;;;5061598;28;51266;-66
2022/07/09 09:59:42;;;;;;;;;2.33;2.33;;;;;;;;5070312;28;51938;-66
2022/07/09 10:02:12;;;;;;;;;6.00;5.00;;;;;;;;5057704;28;51540;-67
2022/07/09 10:04:37;;;;;;;;;16.00;15.67;;;;;;;;5062143;28;51321;-67
2022/07/09 10:07:06;;;;;;;;;7.00;7.00;;;;;;;;5053590;28;51393;-67
2022/07/09 10:09:31;;;;;;;;;7.00;7.00;;;;;;;;5054973;28;51941;-66
2022/07/09 10:11:57;;;;;;;;;3.00;3.00;;;;;;;;5061670;28;51002;-67
2022/07/09 10:14:28;;;;;;;;;8.00;6.00;;;;;;;;5060893;28;51248;-67
2022/07/09 10:16:54;;;;;;;;;6.00;5.67;;;;;;;;5066283;28;50997;-64
2022/07/09 10:19:26;;;;;;;;;7.00;6.33;;;;;;;;5060516;28;51691;-67
2022/07/09 10:21:52;;;;;;;;;8.00;7.00;;;;;;;;5052278;28;51140;-66
2022/07/09 10:24:23;;;;;;;;;5.33;5.33;;;;;;;;5054415;28;51206;-65
2022/07/09 10:26:48;;;;;;;;;6.33;6.33;;;;;;;;5061229;28;51051;-66
2022/07/09 10:29:32;;;;;;;;;5.67;5.67;;;;;;;;5051608;28;53200;-66
2022/07/09 10:31:57;;;;;;;;;4.67;4.67;;;;;;;;5051861;28;53145;-66
2022/07/09 10:34:37;;;;;;;;;4.00;4.00;;;;;;;;5050025;28;51120;-66
2022/07/09 10:37:04;;;;;;;;;4.67;4.67;;;;;;;;5054604;28;51252;-66
2022/07/09 10:39:29;;;;;;;;;4.67;4.67;;;;;;;;5039383;28;52739;-65
2022/07/09 10:42:01;;;;;;;;;2.00;2.00;;;;;;;;5054213;28;50967;-66
2022/07/09 10:44:27;;;;;;;;;6.00;5.33;;;;;;;;5056203;28;51262;-64
2022/07/09 10:46:56;;;;;;;;;4.33;4.33;;;;;;;;5063082;28;51196;-63
2022/07/09 10:49:22;;;;;;;;;5.00;5.00;;;;;;;;5050981;28;51914;-63
2022/07/09 10:51:47;;;;;;;;;4.33;4.00;;;;;;;;5055118;28;51124;-64
2022/07/09 10:54:16;;;;;;;;;5.67;5.00;;;;;;;;5058841;28;51142;-64
2022/07/09 10:56:41;;;;;;;;;5.67;5.67;;;;;;;;5069273;28;51353;-67
2022/07/09 10:59:06;;;;;;;;;5.00;5.00;;;;;;;;5068728;28;51013;-64
2022/07/09 11:01:32;;;;;;;;;5.00;5.00;;;;;;;;5064189;28;51080;-65
2022/07/09 11:03:58;;;;;;;;;6.00;6.00;;;;;;;;5047158;28;51014;-64
2022/07/09 11:06:23;;;;;;;;;5.00;5.00;;;;;;;;5060597;28;51144;-66
2022/07/09 11:08:49;;;;;;;;;6.67;5.00;;;;;;;;5039591;28;52622;-64
2022/07/09 11:11:21;;;;;;;;;5.00;5.00;;;;;;;;5055112;28;51161;-65
2022/07/09 11:13:49;;;;;;;;;6.67;6.00;;;;;;;;5056856;28;51217;-67
2022/07/09 11:16:21;;;;;;;;;4.33;4.33;;;;;;;;5066549;28;51124;-65
2022/07/09 11:18:46;;;;;;;;;5.00;5.00;;;;;;;;5055930;28;51756;-64
2022/07/09 11:21:11;;;;;;;;;5.00;5.00;;;;;;;;5054357;28;51874;-65
2022/07/09 11:23:36;;;;;;;;;5.33;5.33;;;;;;;;5057807;28;51133;-65
2022/07/09 11:26:02;;;;;;;;;5.67;5.67;;;;;;;;5056959;27;51177;-67
2022/07/09 11:28:27;;;;;;;;;5.33;5.33;;;;;;;;5050321;28;51210;-65
2022/07/09 11:30:59;;;;;;;;;6.67;5.67;;;;;;;;5056048;28;51136;-65
2022/07/09 11:33:24;;;;;;;;;5.00;5.00;;;;;;;;5061924;28;51146;-65
2022/07/09 11:35:49;;;;;;;;;4.00;4.00;;;;;;;;5054128;28;50915;-63
2022/07/09 11:38:15;;;;;;;;;5.33;5.33;;;;;;;;5059979;28;51981;-64
2022/07/09 11:40:40;;;;;;;;;5.00;5.00;;;;;;;;5074967;28;50969;-64
2022/07/09 11:43:15;;;;;;;;;6.00;5.00;;;;;;;;5061953;28;50988;-64
2022/07/09 11:45:51;;;;;;;;;7.00;7.00;;;;;;;;5061159;28;51401;-63
2022/07/09 11:48:16;;;;;;;;;7.33;7.33;;;;;;;;5054519;28;51970;-64
2022/07/09 11:50:44;;;;;;;;;8.00;7.00;;;;;;;;5059259;28;51251;-65
2022/07/09 11:53:25;;;;;;;;;7.67;7.00;;;;;;;;5060329;28;51192;-64
2022/07/09 11:55:58;;;;;;;;;7.00;7.00;;;;;;;;5066435;28;51267;-64
2022/07/09 11:58:23;;;;;;;;;6.33;6.00;;;;;;;;5064418;28;51017;-64
2022/07/09 12:00:49;;;;;;;;;7.00;6.00;;;;;;;;5060989;28;50957;-65
2022/07/09 12:03:23;;;;;;;;;6.67;6.00;;;;;;;;5061889;28;51000;-63
2022/07/09 12:05:50;;;;;;;;;8.00;8.00;;;;;;;;5072163;28;50873;-63
2022/07/09 12:08:26;;;;;;;;;5.33;5.33;;;;;;;;5069728;28;52901;-64
2022/07/09 12:10:51;;;;;;;;;8.00;8.00;;;;;;;;5053310;28;51778;-64
2022/07/09 12:13:16;;;;;;;;;7.33;7.33;;;;;;;;5045420;28;51195;-64
2022/07/09 12:15:41;;;;;;;;;7.00;7.00;;;;;;;;5055668;28;51110;-65
2022/07/09 12:18:06;;;;;;;;;8.33;8.00;;;;;;;;5064871;28;52060;-63
2022/07/09 12:20:32;;;;;;;;;6.00;6.00;;;;;;;;5059032;28;51240;-64
2022/07/09 12:22:57;;;;;;;;;8.00;8.00;;;;;;;;5035640;28;51225;-64
2022/07/09 12:25:23;;;;;;;;;7.67;6.33;;;;;;;;5070322;28;50984;-64
2022/07/09 12:27:51;;;;;;;;;6.00;6.00;;;;;;;;5062809;28;51045;-65
2022/07/09 12:30:17;;;;;;;;;9.00;8.33;;;;;;;;5053799;28;50951;-64
2022/07/09 12:32:42;;;;;;;;;7.67;7.67;;;;;;;;5053517;28;50927;-65
2022/07/09 12:35:07;;;;;;;;;8.33;8.00;;;;;;;;5053709;28;51327;-64
2022/07/09 12:37:34;;;;;;;;;7.00;7.00;;;;;;;;5052893;28;51909;-65
2022/07/09 12:39:59;;;;;;;;;7.67;7.67;;;;;;;;5053793;28;50983;-64
2022/07/09 12:42:24;;;;;;;;;7.00;7.00;;;;;;;;5054149;28;50803;-65
2022/07/09 12:44:53;;;;;;;;;9.67;9.00;;;;;;;;5059087;28;50805;-64
2022/07/09 12:47:18;;;;;;;;;8.00;8.00;;;;;;;;5053860;28;51172;-64
2022/07/09 12:49:43;;;;;;;;;7.00;7.00;;;;;;;;5068925;28;51022;-64
2022/07/09 12:52:08;;;;;;;;;9.33;9.00;;;;;;;;5071517;28;51006;-64
2022/07/09 12:54:33;;;;;;;;;8.00;8.00;;;;;;;;5046503;28;51311;-64
2022/07/09 12:56:59;;;;;;;;;8.00;8.00;;;;;;;;5053308;28;51829;-64
2022/07/09 12:59:24;;;;;;;;;9.00;9.00;;;;;;;;5052734;28;51109;-65
2022/07/09 13:01:50;;;;;;;;;7.33;7.00;;;;;;;;5066077;28;51255;-64
2022/07/09 13:04:15;;;;;;;;;6.67;6.67;;;;;;;;5073815;28;50959;-64
2022/07/09 13:06:41;;;;;;;;;6.00;6.00;;;;;;;;5073215;28;51911;-65
2022/07/09 13:09:07;;;;;;;;;8.00;8.00;;;;;;;;5073558;28;51216;-64
2022/07/09 13:11:32;;;;;;;;;9.00;8.67;;;;;;;;5074101;28;51034;-64
2022/07/09 13:13:58;;;;;;;;;9.00;9.00;;;;;;;;5073397;28;51111;-65
2022/07/09 13:16:23;;;;;;;;;7.00;7.00;;;;;;;;5064390;28;50927;-65
2022/07/09 13:18:49;;;;;;;;;9.00;9.00;;;;;;;;5035159;28;51008;-64
2022/07/09 13:21:14;;;;;;;;;10.33;9.67;;;;;;;;5053241;28;50914;-65
2022/07/09 13:23:40;;;;;;;;;7.67;7.67;;;;;;;;5053145;28;51006;-64
2022/07/09 13:26:05;;;;;;;;;7.33;7.33;;;;;;;;5052644;28;51132;-66
2022/07/09 13:28:30;;;;;;;;;9.00;8.33;;;;;;;;5052951;28;51012;-64
2022/07/09 13:30:55;;;;;;;;;7.33;7.00;;;;;;;;5073492;28;50978;-65
2022/07/09 13:33:21;;;;;;;;;8.00;8.00;;;;;;;;5073498;28;51188;-64
2022/07/09 13:35:46;;;;;;;;;5.33;5.33;;;;;;;;5052672;28;50972;-65
2022/07/09 13:38:11;;;;;;;;;8.00;7.00;;;;;;;;5034360;28;51166;-64
2022/07/09 13:40:36;;;;;;;;;6.33;6.33;;;;;;;;5052700;28;50945;-65
2022/07/09 13:43:02;;;;;;;;;6.00;6.00;;;;;;;;5053103;28;50940;-64
2022/07/09 13:45:28;;;;;;;;;7.00;7.00;;;;;;;;5063051;28;52275;-65
2022/07/09 13:47:53;;;;;;;;;6.33;6.00;;;;;;;;5052464;28;51082;-64
2022/07/09 13:50:18;;;;;;;;;6.67;6.67;;;;;;;;5052533;28;51055;-65
2022/07/09 13:52:43;;;;;;;;;4.00;4.00;;;;;;;;5059321;28;51064;-65
2022/07/09 13:55:08;;;;;;;;;7.33;7.33;;;;;;;;5056775;28;51073;-64
2022/07/09 13:57:34;;;;;;;;;8.00;8.00;;;;;;;;5065575;28;51042;-64
2022/07/09 13:59:59;;;;;;;;;6.33;6.33;;;;;;;;5033719;28;51115;-64
2022/07/09 14:02:25;;;;;;;;;5.00;5.00;;;;;;;;5058684;28;51275;-64
2022/07/09 14:04:50;;;;;;;;;6.00;6.00;;;;;;;;5067145;28;51825;-64
2022/07/09 14:07:15;;;;;;;;;9.00;9.00;;;;;;;;5054672;28;50934;-64
2022/07/09 14:09:41;;;;;;;;;6.00;6.00;;;;;;;;5072684;28;50906;-64
2022/07/09 14:12:06;;;;;;;;;8.33;8.33;;;;;;;;5068519;27;51144;-65
2022/07/09 14:14:31;;;;;;;;;6.33;6.33;;;;;;;;5071793;28;51811;-63
2022/07/09 14:16:56;;;;;;;;;5.33;5.33;;;;;;;;5064373;28;51002;-65
2022/07/09 14:19:22;;;;;;;;;6.00;6.00;;;;;;;;5057793;28;51020;-64
2022/07/09 14:21:47;;;;;;;;;7.00;7.00;;;;;;;;5072569;28;51004;-65
2022/07/09 14:24:13;;;;;;;;;7.00;7.00;;;;;;;;5062499;28;52227;-64
2022/07/09 14:26:40;;;;;;;;;10.00;8.00;;;;;;;;5052420;28;51443;-64